createdAt,value
2022-08-04T00:00:15.696Z,0.00
2022-08-04T00:01:15.718Z,0.00
2022-08-04T00:02:15.741Z,0.00
2022-08-04T00:03:15.669Z,0.00
2022-08-04T00:04:15.661Z,0.00
2022-08-04T00:05:15.654Z,0.00
2022-08-04T00:06:15.642Z,0.00
2022-08-04T00:07:15.633Z,0.00
2022-08-04T00:08:15.730Z,0.00
2022-08-04T00:09:15.619Z,0.00
2022-08-04T00:10:15.629Z,0.00
2022-08-04T00:11:15.842Z,0.00
2022-08-04T00:12:15.595Z,0.00
2022-08-04T00:13:15.585Z,0.00
2022-08-04T00:14:15.605Z,0.00
2022-08-04T00:15:16.491Z,0.00
2022-08-04T00:16:15.565Z,0.00
2022-08-04T00:17:15.551Z,0.00
2022-08-04T00:18:15.552Z,0.00
2022-08-04T00:19:15.587Z,0.00
2022-08-04T00:20:15.535Z,0.00
2022-08-04T00:21:15.544Z,0.00
2022-08-04T00:22:15.513Z,0.00
2022-08-04T00:23:15.503Z,0.00
2022-08-04T00:24:15.503Z,0.00
2022-08-04T00:25:15.497Z,0.00
2022-08-04T00:26:15.485Z,0.00
2022-08-04T00:27:15.474Z,0.00
2022-08-04T00:28:15.471Z,0.00
2022-08-04T00:29:15.499Z,0.00
2022-08-04T00:30:15.477Z,0.00
2022-08-04T00:31:15.974Z,0.00
2022-08-04T00:32:15.436Z,0.00
2022-08-04T00:33:15.428Z,0.00
2022-08-04T00:34:15.473Z,0.00
2022-08-04T00:35:15.407Z,0.00
2022-08-04T00:36:15.404Z,0.00
2022-08-04T00:37:15.394Z,0.00
2022-08-04T00:38:15.390Z,0.00
2022-08-04T00:39:15.413Z,0.00
2022-08-04T00:40:15.373Z,0.00
2022-08-04T00:41:15.384Z,0.00
2022-08-04T00:42:15.354Z,0.00
2022-08-04T00:43:15.347Z,0.00
2022-08-04T00:44:15.338Z,0.00
2022-08-04T00:45:15.337Z,0.00
2022-08-04T00:46:17.282Z,0.00
2022-08-04T00:47:15.311Z,0.00
2022-08-04T00:48:15.308Z,0.00
2022-08-04T00:49:15.298Z,0.00
2022-08-04T00:50:15.290Z,0.00
2022-08-04T00:51:15.310Z,0.00
2022-08-04T00:52:32.054Z,0.00
2022-08-04T00:53:15.263Z,0.00
2022-08-04T00:54:15.260Z,0.00
2022-08-04T00:55:15.273Z,0.00
2022-08-04T00:56:15.241Z,0.00
2022-08-04T00:57:29.975Z,0.00
2022-08-04T00:58:15.225Z,0.00
2022-08-04T00:59:15.218Z,0.00
2022-08-04T01:00:15.260Z,0.00
2022-08-04T01:01:15.219Z,0.00
2022-08-04T01:02:15.190Z,0.00
2022-08-04T01:03:15.183Z,0.00
2022-08-04T01:04:15.183Z,0.00
2022-08-04T01:05:15.162Z,0.00
2022-08-04T01:06:15.191Z,0.00
2022-08-04T01:07:15.151Z,0.00
2022-08-04T01:08:15.142Z,0.00
2022-08-04T01:09:21.202Z,0.00
2022-08-04T01:10:17.540Z,0.00
2022-08-04T01:11:15.161Z,0.00
2022-08-04T01:12:15.106Z,0.00
2022-08-04T01:13:15.670Z,0.00
2022-08-04T01:14:15.109Z,0.00
2022-08-04T01:15:15.079Z,0.00
2022-08-04T01:16:15.104Z,0.00
2022-08-04T01:17:15.107Z,0.00
2022-08-04T01:18:15.063Z,0.00
2022-08-04T01:19:15.051Z,0.00
2022-08-04T01:20:15.043Z,0.00
2022-08-04T01:21:15.033Z,0.00
2022-08-04T01:22:15.049Z,0.00
2022-08-04T01:23:15.011Z,0.00
2022-08-04T01:24:15.007Z,0.00
2022-08-04T01:25:14.994Z,0.00
2022-08-04T01:26:43.454Z,0.00
2022-08-04T01:27:15.056Z,0.00
2022-08-04T01:28:14.976Z,0.00
2022-08-04T01:29:16.026Z,0.00
2022-08-04T01:30:14.961Z,0.00
2022-08-04T01:31:14.947Z,0.00
2022-08-04T01:32:14.938Z,0.00
2022-08-04T01:33:14.953Z,0.00
2022-08-04T01:34:14.961Z,0.00
2022-08-04T01:35:21.776Z,0.00
2022-08-04T01:36:14.926Z,0.00
2022-08-04T01:37:14.893Z,0.00
2022-08-04T01:38:18.292Z,0.00
2022-08-04T01:39:14.990Z,0.00
2022-08-04T01:40:14.877Z,0.00
2022-08-04T01:41:14.857Z,0.00
2022-08-04T01:42:31.551Z,0.00
2022-08-04T01:43:14.843Z,0.00
2022-08-04T01:44:14.836Z,0.00
2022-08-04T01:45:14.852Z,0.00
2022-08-04T01:46:14.817Z,0.00
2022-08-04T01:47:14.806Z,0.00
2022-08-04T01:48:14.797Z,0.00
2022-08-04T01:49:14.790Z,0.00
2022-08-04T01:50:14.839Z,0.00
2022-08-04T01:51:14.771Z,0.00
2022-08-04T01:52:14.767Z,0.00
2022-08-04T01:53:14.751Z,0.00
2022-08-04T01:54:14.766Z,0.00
2022-08-04T01:55:14.734Z,0.00
2022-08-04T01:56:14.758Z,0.00
2022-08-04T01:57:37.748Z,0.00
2022-08-04T01:58:14.708Z,0.00
2022-08-04T01:59:14.699Z,0.00
2022-08-04T02:00:14.697Z,0.00
2022-08-04T02:01:14.805Z,0.00
2022-08-04T02:02:14.791Z,0.00
2022-08-04T02:03:14.665Z,0.00
2022-08-04T02:04:21.024Z,0.00
2022-08-04T02:05:14.648Z,0.00
2022-08-04T02:06:14.682Z,0.00
2022-08-04T02:07:14.646Z,0.00
2022-08-04T02:08:14.624Z,0.00
2022-08-04T02:09:14.616Z,0.00
2022-08-04T02:10:14.605Z,0.00
2022-08-04T02:11:14.598Z,0.00
2022-08-04T02:12:16.183Z,0.00
2022-08-04T02:13:14.613Z,0.00
2022-08-04T02:14:14.572Z,0.00
2022-08-04T02:15:14.561Z,0.00
2022-08-04T02:16:14.560Z,0.00
2022-08-04T02:17:14.564Z,0.00
2022-08-04T02:18:14.535Z,0.00
2022-08-04T02:19:14.752Z,0.00
2022-08-04T02:20:14.530Z,0.00
2022-08-04T02:21:14.536Z,0.00
2022-08-04T02:22:14.498Z,0.00
2022-08-04T02:23:14.496Z,0.00
2022-08-04T02:24:14.482Z,0.00
2022-08-04T02:25:14.475Z,0.00
2022-08-04T02:26:22.794Z,0.00
2022-08-04T02:27:14.456Z,0.00
2022-08-04T02:28:14.478Z,0.00
2022-08-04T02:29:14.474Z,0.00
2022-08-04T02:30:14.427Z,0.00
2022-08-04T02:31:14.421Z,0.00
2022-08-04T02:32:14.410Z,0.00
2022-08-04T02:33:14.406Z,0.00
2022-08-04T02:34:14.394Z,0.00
2022-08-04T02:35:14.387Z,0.00
2022-08-04T02:36:14.375Z,0.00
2022-08-04T02:37:14.371Z,0.00
2022-08-04T02:38:14.620Z,0.00
2022-08-04T02:39:14.393Z,0.00
2022-08-04T02:40:14.344Z,0.00
2022-08-04T02:41:14.331Z,0.00
2022-08-04T02:42:14.327Z,0.00
2022-08-04T02:43:14.316Z,0.00
2022-08-04T02:44:14.332Z,0.00
2022-08-04T02:45:14.329Z,0.00
2022-08-04T02:46:17.666Z,0.00
2022-08-04T02:47:14.293Z,0.00
2022-08-04T02:48:29.824Z,0.00
2022-08-04T02:49:14.293Z,0.00
2022-08-04T02:50:14.254Z,0.00
2022-08-04T02:51:14.253Z,0.00
2022-08-04T02:52:14.229Z,0.00
2022-08-04T02:53:14.229Z,0.00
2022-08-04T02:54:14.241Z,0.00
2022-08-04T02:55:14.234Z,0.00
2022-08-04T02:56:14.197Z,0.00
2022-08-04T02:57:14.231Z,0.00
2022-08-04T02:58:14.178Z,0.00
2022-08-04T02:59:14.172Z,0.00
2022-08-04T03:00:14.197Z,0.00
2022-08-04T03:01:14.177Z,0.00
2022-08-04T03:02:14.142Z,0.00
2022-08-04T03:03:14.137Z,0.00
2022-08-04T03:04:22.131Z,0.00
2022-08-04T03:05:14.119Z,0.00
2022-08-04T03:06:14.178Z,0.00
2022-08-04T03:07:14.410Z,0.00
2022-08-04T03:08:14.088Z,0.00
2022-08-04T03:09:14.084Z,0.00
2022-08-04T03:10:14.070Z,0.00
2022-08-04T03:11:14.066Z,0.00
2022-08-04T03:12:14.111Z,0.00
2022-08-04T03:13:14.052Z,0.00
2022-08-04T03:14:14.036Z,0.00
2022-08-04T03:15:14.032Z,0.00
2022-08-04T03:16:14.021Z,0.00
2022-08-04T03:17:14.013Z,0.00
2022-08-04T03:18:14.162Z,0.00
2022-08-04T03:19:13.997Z,0.00
2022-08-04T03:20:13.985Z,0.00
2022-08-04T03:21:13.976Z,0.00
2022-08-04T03:22:13.964Z,0.00
2022-08-04T03:23:14.333Z,0.00
2022-08-04T03:24:17.029Z,0.00
2022-08-04T03:25:13.942Z,0.00
2022-08-04T03:26:13.931Z,0.00
2022-08-04T03:27:13.927Z,4.00
2022-08-04T03:28:13.916Z,0.00
2022-08-04T03:29:13.945Z,0.00
2022-08-04T03:30:13.912Z,4.00
2022-08-04T03:31:13.894Z,4.00
2022-08-04T03:32:13.876Z,4.00
2022-08-04T03:33:13.874Z,4.00
2022-08-04T03:34:13.866Z,4.00
2022-08-04T03:35:13.860Z,4.00
2022-08-04T03:36:13.854Z,4.00
2022-08-04T03:37:13.838Z,4.00
2022-08-04T03:38:13.826Z,4.00
2022-08-04T03:39:13.840Z,0.00
2022-08-04T03:40:13.835Z,4.00
2022-08-04T03:41:13.803Z,8.00
2022-08-04T03:42:16.024Z,4.00
2022-08-04T03:43:57.374Z,4.00
2022-08-04T03:44:13.771Z,8.00
2022-08-04T03:45:23.184Z,8.00
2022-08-04T03:46:13.757Z,8.00
2022-08-04T03:47:13.817Z,12.00
2022-08-04T03:48:13.732Z,8.00
2022-08-04T03:49:13.731Z,8.00
2022-08-04T03:50:13.722Z,12.00
2022-08-04T03:51:35.055Z,12.00
2022-08-04T03:52:13.763Z,12.00
2022-08-04T03:53:13.716Z,12.00
2022-08-04T03:54:13.685Z,12.00
2022-08-04T03:55:13.677Z,16.00
2022-08-04T03:56:13.665Z,20.00
2022-08-04T03:57:13.663Z,16.00
2022-08-04T03:58:13.650Z,20.00
2022-08-04T03:59:13.639Z,20.00
2022-08-04T04:00:13.628Z,20.00
2022-08-04T04:01:13.625Z,20.00
2022-08-04T04:02:13.662Z,24.00
2022-08-04T04:03:13.617Z,24.00
2022-08-04T04:04:13.653Z,28.00
2022-08-04T04:05:13.596Z,28.00
2022-08-04T04:06:15.091Z,32.00
2022-08-04T04:07:14.330Z,32.00
2022-08-04T04:08:18.739Z,36.00
2022-08-04T04:09:16.297Z,40.00
2022-08-04T04:10:13.581Z,40.00
2022-08-04T04:11:13.542Z,40.00
2022-08-04T04:12:13.528Z,48.00
2022-08-04T04:13:13.520Z,48.00
2022-08-04T04:14:13.510Z,52.00
2022-08-04T04:15:13.504Z,52.00
2022-08-04T04:16:13.533Z,52.00
2022-08-04T04:17:13.515Z,56.00
2022-08-04T04:18:13.471Z,56.00
2022-08-04T04:19:13.466Z,60.00
2022-08-04T04:20:13.455Z,64.00
2022-08-04T04:21:13.444Z,68.00
2022-08-04T04:22:13.482Z,72.00
2022-08-04T04:23:13.429Z,76.00
2022-08-04T04:24:13.419Z,76.00
2022-08-04T04:25:13.412Z,84.00
2022-08-04T04:26:13.398Z,84.00
2022-08-04T04:27:13.476Z,92.00
2022-08-04T04:28:46.490Z,96.00
2022-08-04T04:29:13.375Z,104.00
2022-08-04T04:30:13.361Z,108.00
2022-08-04T04:31:13.360Z,112.00
2022-08-04T04:32:13.352Z,120.00
2022-08-04T04:33:13.340Z,116.00
2022-08-04T04:34:13.329Z,116.00
2022-08-04T04:35:13.323Z,120.00
2022-08-04T04:36:13.348Z,120.00
2022-08-04T04:37:13.369Z,124.00
2022-08-04T04:38:13.293Z,120.00
2022-08-04T04:39:13.362Z,124.00
2022-08-04T04:40:13.276Z,132.00
2022-08-04T04:41:13.267Z,132.00
2022-08-04T04:42:13.259Z,140.00
2022-08-04T04:43:13.251Z,144.00
2022-08-04T04:44:13.239Z,152.00
2022-08-04T04:45:13.235Z,152.00
2022-08-04T04:46:15.313Z,156.00
2022-08-04T04:47:13.244Z,160.00
2022-08-04T04:48:13.205Z,168.00
2022-08-04T04:49:13.196Z,164.00
2022-08-04T04:50:13.213Z,164.00
2022-08-04T04:51:13.177Z,164.00
2022-08-04T04:52:13.166Z,168.00
2022-08-04T04:53:13.162Z,172.00
2022-08-04T04:54:13.167Z,172.00
2022-08-04T04:55:13.173Z,184.00
2022-08-04T04:56:13.136Z,180.00
2022-08-04T04:57:13.139Z,180.00
2022-08-04T04:58:13.114Z,176.00
2022-08-04T04:59:13.106Z,172.00
2022-08-04T05:00:13.100Z,172.00
2022-08-04T05:01:13.093Z,176.00
2022-08-04T05:02:13.076Z,176.00
2022-08-04T05:03:13.074Z,188.00
2022-08-04T05:04:13.063Z,196.00
2022-08-04T05:05:13.055Z,200.00
2022-08-04T05:06:13.109Z,212.00
2022-08-04T05:07:13.070Z,224.00
2022-08-04T05:08:43.339Z,248.00
2022-08-04T05:09:13.021Z,268.00
2022-08-04T05:10:13.006Z,264.00
2022-08-04T05:11:13.008Z,244.00
2022-08-04T05:14:32.063Z,240.00
2022-08-04T05:14:35.656Z,260.00
2022-08-04T05:14:36.438Z,252.00
2022-08-04T05:15:12.966Z,268.00
2022-08-04T05:16:12.952Z,272.00
2022-08-04T05:17:12.986Z,280.00
2022-08-04T05:18:12.954Z,288.00
2022-08-04T05:19:12.944Z,292.00
2022-08-04T05:20:12.917Z,296.00
2022-08-04T05:21:12.910Z,292.00
2022-08-04T05:22:14.809Z,300.00
2022-08-04T05:23:12.897Z,300.00
2022-08-04T05:24:12.887Z,272.00
2022-08-04T05:25:12.878Z,284.00
2022-08-04T05:26:12.861Z,276.00
2022-08-04T05:27:12.950Z,288.00
2022-08-04T05:28:12.858Z,292.00
2022-08-04T05:29:12.841Z,280.00
2022-08-04T05:30:12.827Z,276.00
2022-08-04T05:31:12.826Z,284.00
2022-08-04T05:32:12.816Z,292.00
2022-08-04T05:33:12.843Z,292.00
2022-08-04T05:34:12.792Z,288.00
2022-08-04T05:35:12.790Z,288.00
2022-08-04T05:36:18.418Z,296.00
2022-08-04T05:37:12.854Z,304.00
2022-08-04T05:38:12.812Z,328.00
2022-08-04T05:39:12.820Z,344.00
2022-08-04T05:40:12.743Z,356.00
2022-08-04T05:41:12.733Z,364.00
2022-08-04T05:42:12.723Z,364.00
2022-08-04T05:43:12.741Z,352.00
2022-08-04T05:44:12.759Z,320.00
2022-08-04T05:45:12.697Z,312.00
2022-08-04T05:46:12.695Z,288.00
2022-08-04T05:47:12.685Z,284.00
2022-08-04T05:48:12.669Z,296.00
2022-08-04T05:49:20.465Z,308.00
2022-08-04T05:50:12.654Z,320.00
2022-08-04T05:51:12.642Z,312.00
2022-08-04T05:52:12.637Z,308.00
2022-08-04T05:53:12.630Z,304.00
2022-08-04T05:54:12.616Z,312.00
2022-08-04T05:55:12.641Z,336.00
2022-08-04T05:56:12.664Z,348.00
2022-08-04T05:57:12.592Z,356.00
2022-08-04T05:58:12.583Z,372.00
2022-08-04T05:59:12.576Z,400.00
2022-08-04T06:00:39.070Z,420.00
2022-08-04T06:01:12.558Z,456.00
2022-08-04T06:02:12.592Z,528.00
2022-08-04T06:03:12.543Z,584.00
2022-08-04T06:04:12.530Z,620.00
2022-08-04T06:05:12.523Z,612.00
2022-08-04T06:06:12.512Z,580.00
2022-08-04T06:07:12.510Z,616.00
2022-08-04T06:08:14.063Z,612.00
2022-08-04T06:09:12.494Z,620.00
2022-08-04T06:10:12.487Z,608.00
2022-08-04T06:11:12.500Z,564.00
2022-08-04T06:12:12.483Z,548.00
2022-08-04T06:13:48.150Z,524.00
2022-08-04T06:14:12.442Z,516.00
2022-08-04T06:15:12.438Z,512.00
2022-08-04T06:16:28.994Z,504.00
2022-08-04T06:18:32.397Z,504.00
2022-08-04T06:19:57.270Z,508.00
2022-08-04T06:20:03.667Z,512.00
2022-08-04T06:20:19.168Z,512.00
2022-08-04T06:21:15.912Z,484.00
2022-08-04T06:22:12.411Z,480.00
2022-08-04T06:23:12.368Z,480.00
2022-08-04T06:24:12.356Z,476.00
2022-08-04T06:25:12.352Z,460.00
2022-08-04T06:26:12.338Z,464.00
2022-08-04T06:27:12.375Z,460.00
2022-08-04T06:28:12.324Z,464.00
2022-08-04T06:29:12.319Z,480.00
2022-08-04T06:30:12.303Z,492.00
2022-08-04T06:32:27.478Z,488.00
2022-08-04T06:32:29.490Z,488.00
2022-08-04T06:33:12.282Z,488.00
2022-08-04T06:34:12.274Z,508.00
2022-08-04T06:35:12.271Z,520.00
2022-08-04T06:36:12.285Z,504.00
2022-08-04T06:37:12.276Z,512.00
2022-08-04T06:38:12.242Z,516.00
2022-08-04T06:39:12.274Z,512.00
2022-08-04T06:40:29.904Z,516.00
2022-08-04T06:41:12.217Z,508.00
2022-08-04T06:42:22.178Z,504.00
2022-08-04T06:43:12.196Z,516.00
2022-08-04T06:44:12.192Z,524.00
2022-08-04T06:45:12.178Z,552.00
2022-08-04T06:46:12.177Z,600.00
2022-08-04T06:47:13.794Z,624.00
2022-08-04T06:48:12.192Z,672.00
2022-08-04T06:49:12.144Z,704.00
2022-08-04T06:51:26.165Z,768.00
2022-08-04T06:51:28.204Z,780.00
2022-08-04T06:52:12.122Z,796.00
2022-08-04T06:53:12.121Z,788.00
2022-08-04T06:54:12.106Z,772.00
2022-08-04T06:55:12.118Z,768.00
2022-08-04T06:56:12.086Z,756.00
2022-08-04T06:57:12.079Z,708.00
2022-08-04T06:58:12.073Z,668.00
2022-08-04T06:59:12.085Z,640.00
2022-08-04T07:00:12.059Z,652.00
2022-08-04T07:01:12.046Z,656.00
2022-08-04T07:02:12.084Z,664.00
2022-08-04T07:03:12.030Z,676.00
2022-08-04T07:04:12.024Z,712.00
2022-08-04T07:05:12.012Z,708.00
2022-08-04T07:06:14.550Z,704.00
2022-08-04T07:07:11.997Z,684.00
2022-08-04T07:08:11.987Z,672.00
2022-08-04T07:09:11.981Z,712.00
2022-08-04T07:10:11.974Z,752.00
2022-08-04T07:11:12.019Z,744.00
2022-08-04T07:12:11.958Z,844.00
2022-08-04T07:13:11.951Z,896.00
2022-08-04T07:14:11.939Z,872.00
2022-08-04T07:15:14.315Z,828.00
2022-08-04T07:16:11.961Z,792.00
2022-08-04T07:17:11.912Z,756.00
2022-08-04T07:18:11.908Z,716.00
2022-08-04T07:19:13.829Z,676.00
2022-08-04T07:20:11.890Z,664.00
2022-08-04T07:21:11.890Z,672.00
2022-08-04T07:22:24.811Z,664.00
2022-08-04T07:23:11.869Z,672.00
2022-08-04T07:24:11.869Z,676.00
2022-08-04T07:25:12.974Z,700.00
2022-08-04T07:26:13.428Z,748.00
2022-08-04T07:27:11.862Z,764.00
2022-08-04T07:28:11.830Z,780.00
2022-08-04T07:29:11.858Z,808.00
2022-08-04T07:30:11.809Z,832.00
2022-08-04T07:31:33.421Z,844.00
2022-08-04T07:32:11.805Z,784.00
2022-08-04T07:33:11.791Z,720.00
2022-08-04T07:34:17.276Z,712.00
2022-08-04T07:35:20.040Z,676.00
2022-08-04T07:36:11.997Z,656.00
2022-08-04T07:37:11.763Z,648.00
2022-08-04T07:38:11.747Z,644.00
2022-08-04T07:39:11.851Z,648.00
2022-08-04T07:40:11.736Z,640.00
2022-08-04T07:42:11.715Z,612.00
2022-08-04T07:43:11.747Z,556.00
2022-08-04T07:44:11.702Z,576.00
2022-08-04T07:45:11.693Z,568.00
2022-08-04T07:46:11.683Z,592.00
2022-08-04T07:47:11.687Z,624.00
2022-08-04T07:48:11.669Z,644.00
2022-08-04T07:49:11.703Z,600.00
2022-08-04T07:50:11.696Z,604.00
2022-08-04T07:51:11.646Z,604.00
2022-08-04T07:52:11.638Z,580.00
2022-08-04T07:53:55.596Z,588.00
2022-08-04T07:54:11.625Z,656.00
2022-08-04T07:55:11.622Z,652.00
2022-08-04T07:56:11.650Z,636.00
2022-08-04T07:57:20.974Z,648.00
2022-08-04T07:58:11.591Z,688.00
2022-08-04T07:59:11.615Z,572.00
2022-08-04T08:00:11.578Z,564.00
2022-08-04T08:01:11.576Z,496.00
2022-08-04T08:02:11.576Z,528.00
2022-08-04T08:03:11.645Z,528.00
2022-08-04T08:04:11.553Z,500.00
2022-08-04T08:05:11.568Z,512.00
2022-08-04T08:06:30.331Z,532.00
2022-08-04T08:07:11.529Z,560.00
2022-08-04T08:08:11.588Z,580.00
2022-08-04T08:09:13.595Z,584.00
2022-08-04T08:10:11.512Z,796.00
2022-08-04T08:11:11.495Z,904.00
2022-08-04T08:12:37.804Z,844.00
2022-08-04T08:13:11.482Z,780.00
2022-08-04T08:14:11.502Z,820.00
2022-08-04T08:15:11.730Z,1208.00
2022-08-04T08:16:11.460Z,1376.00
2022-08-04T08:17:11.459Z,1304.00
2022-08-04T08:18:11.498Z,980.00
2022-08-04T08:19:11.465Z,904.00
2022-08-04T08:20:11.454Z,896.00
2022-08-04T08:21:11.429Z,892.00
2022-08-04T08:22:11.416Z,876.00
2022-08-04T08:23:11.417Z,804.00
2022-08-04T08:24:11.430Z,868.00
2022-08-04T08:25:11.408Z,872.00
2022-08-04T08:26:11.422Z,780.00
2022-08-04T08:27:11.385Z,664.00
2022-08-04T08:28:11.371Z,676.00
2022-08-04T08:29:11.366Z,700.00
2022-08-04T08:30:11.355Z,708.00
2022-08-04T08:31:11.356Z,800.00
2022-08-04T08:32:11.345Z,816.00
2022-08-04T08:33:11.338Z,900.00
2022-08-04T08:34:11.328Z,1080.00
2022-08-04T08:35:11.327Z,1124.00
2022-08-04T08:36:11.327Z,756.00
2022-08-04T08:37:11.362Z,672.00
2022-08-04T08:38:11.306Z,684.00
2022-08-04T08:39:11.332Z,704.00
2022-08-04T08:40:11.287Z,692.00
2022-08-04T08:41:11.290Z,688.00
2022-08-04T08:42:11.274Z,664.00
2022-08-04T08:44:04.774Z,660.00
2022-08-04T08:44:11.258Z,668.00
2022-08-04T08:45:11.261Z,668.00
2022-08-04T08:46:11.262Z,664.00
2022-08-04T08:47:11.244Z,668.00
2022-08-04T08:48:11.257Z,676.00
2022-08-04T08:49:11.265Z,776.00
2022-08-04T08:50:11.223Z,940.00
2022-08-04T08:51:11.233Z,800.00
2022-08-04T08:52:11.219Z,764.00
2022-08-04T08:53:11.204Z,772.00
2022-08-04T08:54:11.194Z,740.00
2022-08-04T08:55:11.275Z,1412.00
2022-08-04T08:56:11.181Z,1700.00
2022-08-04T08:57:11.176Z,2268.00
2022-08-04T08:58:11.169Z,3108.00
2022-08-04T08:59:15.242Z,2500.00
2022-08-04T09:00:11.158Z,1592.00
2022-08-04T09:01:11.298Z,1604.00
2022-08-04T09:02:11.143Z,3496.00
2022-08-04T09:03:11.144Z,4388.00
2022-08-04T09:04:11.131Z,7144.00
2022-08-04T09:05:11.126Z,4908.00
2022-08-04T09:06:11.117Z,1828.00
2022-08-04T09:07:11.143Z,1392.00
2022-08-04T09:08:11.105Z,1984.00
2022-08-04T09:09:11.122Z,1736.00
2022-08-04T09:10:11.092Z,1156.00
2022-08-04T09:11:11.090Z,1332.00
2022-08-04T09:12:11.108Z,1288.00
2022-08-04T09:13:11.087Z,2008.00
2022-08-04T09:14:11.075Z,4004.00
2022-08-04T09:15:11.084Z,3328.00
2022-08-04T09:16:11.064Z,5204.00
2022-08-04T09:17:11.054Z,6168.00
2022-08-04T09:18:11.070Z,4716.00
2022-08-04T09:19:22.696Z,2380.00
2022-08-04T09:20:11.055Z,3116.00
2022-08-04T09:21:11.035Z,3872.00
2022-08-04T09:22:12.764Z,3648.00
2022-08-04T09:23:11.050Z,2884.00
2022-08-04T09:24:36.480Z,4640.00
2022-08-04T09:25:11.049Z,4764.00
2022-08-04T09:26:11.002Z,4332.00
2022-08-04T09:27:10.998Z,5064.00
2022-08-04T09:28:10.991Z,4848.00
2022-08-04T09:29:11.005Z,6144.00
2022-08-04T09:30:11.016Z,15424.00
2022-08-04T09:31:10.979Z,27680.00
2022-08-04T09:32:10.985Z,38496.00
2022-08-04T09:33:11.000Z,40128.00
2022-08-04T09:34:10.962Z,40672.00
2022-08-04T09:35:15.334Z,40576.00
2022-08-04T09:36:10.995Z,38624.00
2022-08-04T09:37:10.957Z,38592.00
2022-08-04T09:38:10.948Z,33728.00
2022-08-04T09:39:10.989Z,35616.00
2022-08-04T09:40:14.482Z,34336.00
2022-08-04T09:41:20.558Z,33056.00
2022-08-04T09:42:10.965Z,31968.00
2022-08-04T09:43:10.938Z,31808.00
2022-08-04T09:44:50.860Z,30336.00
2022-08-04T09:45:13.402Z,29184.00
2022-08-04T09:46:10.928Z,27648.00
2022-08-04T09:47:10.990Z,26528.00
2022-08-04T09:48:10.929Z,24608.00
2022-08-04T09:49:10.936Z,23616.00
2022-08-04T09:50:10.931Z,23328.00
2022-08-04T09:51:10.929Z,22880.00
2022-08-04T09:52:10.935Z,22208.00
2022-08-04T09:53:10.990Z,21280.00
2022-08-04T09:54:10.933Z,19904.00
2022-08-04T09:55:10.932Z,19200.00
2022-08-04T09:56:10.953Z,18944.00
2022-08-04T09:57:10.931Z,18464.00
2022-08-04T09:58:10.961Z,17440.00
2022-08-04T09:59:11.032Z,15872.00
2022-08-04T10:00:10.967Z,15072.00
2022-08-04T10:01:10.938Z,14432.00
2022-08-04T10:02:10.937Z,13576.00
2022-08-04T10:03:13.642Z,12800.00
2022-08-04T10:04:10.964Z,13472.00
2022-08-04T10:05:10.944Z,10244.00
2022-08-04T10:06:10.942Z,10172.00
2022-08-04T10:07:10.968Z,8888.00
2022-08-04T10:08:10.995Z,9200.00
2022-08-04T10:09:11.000Z,9316.00
2022-08-04T10:10:10.949Z,9648.00
2022-08-04T10:11:10.967Z,10496.00
2022-08-04T10:12:10.950Z,10184.00
2022-08-04T10:13:10.956Z,9676.00
2022-08-04T10:14:10.953Z,9364.00
2022-08-04T10:15:11.015Z,8544.00
2022-08-04T10:16:10.969Z,7812.00
2022-08-04T10:17:10.976Z,8044.00
2022-08-04T10:18:10.964Z,9716.00
2022-08-04T10:19:10.980Z,9812.00
2022-08-04T10:20:10.968Z,11204.00
2022-08-04T10:21:15.505Z,11820.00
2022-08-04T10:22:29.962Z,17536.00
2022-08-04T10:23:12.281Z,16704.00
2022-08-04T10:24:10.978Z,11676.00
2022-08-04T10:26:02.723Z,16224.00
2022-08-04T10:26:10.983Z,20544.00
2022-08-04T10:27:10.985Z,26432.00
2022-08-04T10:28:11.036Z,27808.00
2022-08-04T10:29:10.999Z,27296.00
2022-08-04T10:30:11.003Z,22688.00
2022-08-04T10:31:11.037Z,19008.00
2022-08-04T10:32:11.022Z,22304.00
2022-08-04T10:33:11.008Z,25760.00
2022-08-04T10:34:11.007Z,24832.00
2022-08-04T10:35:11.011Z,11808.00
2022-08-04T10:36:11.013Z,3304.00
2022-08-04T10:37:11.053Z,2952.00
2022-08-04T10:38:11.068Z,3652.00
2022-08-04T10:39:13.731Z,6580.00
2022-08-04T10:40:11.145Z,40800.00
2022-08-04T10:41:11.033Z,59264.00
2022-08-04T10:42:11.030Z,16384.00
2022-08-04T10:43:21.904Z,15424.00
2022-08-04T10:44:11.080Z,6320.00
2022-08-04T10:45:11.041Z,2108.00
2022-08-04T10:46:11.052Z,1876.00
2022-08-04T10:47:11.046Z,1748.00
2022-08-04T10:48:11.048Z,1260.00
2022-08-04T10:49:11.085Z,1256.00
2022-08-04T10:50:11.049Z,968.00
2022-08-04T10:51:11.060Z,1228.00
2022-08-04T10:52:11.057Z,3404.00
2022-08-04T10:53:11.076Z,4980.00
2022-08-04T10:54:11.060Z,4844.00
2022-08-04T10:55:11.083Z,3488.00
2022-08-04T10:56:11.085Z,4012.00
2022-08-04T10:57:11.073Z,5084.00
2022-08-04T10:58:11.058Z,2064.00
2022-08-04T10:59:11.084Z,2960.00
2022-08-04T11:00:11.063Z,1476.00
2022-08-04T11:01:11.092Z,1428.00
2022-08-04T11:02:14.947Z,2008.00
2022-08-04T11:03:11.108Z,2724.00
2022-08-04T11:04:11.100Z,3124.00
2022-08-04T11:05:11.060Z,4728.00
2022-08-04T11:06:11.058Z,1792.00
2022-08-04T11:07:11.054Z,1072.00
2022-08-04T11:08:13.561Z,1060.00
2022-08-04T11:09:13.945Z,1920.00
2022-08-04T11:10:11.058Z,1772.00
2022-08-04T11:11:11.054Z,1252.00
2022-08-04T11:12:11.062Z,1068.00
2022-08-04T11:13:29.397Z,1128.00
2022-08-04T11:14:11.058Z,1120.00
2022-08-04T11:15:11.049Z,1372.00
2022-08-04T11:16:11.076Z,1192.00
2022-08-04T11:17:11.065Z,1032.00
2022-08-04T11:18:16.962Z,1032.00
2022-08-04T11:19:11.042Z,1160.00
2022-08-04T11:20:32.221Z,2192.00
2022-08-04T11:21:11.053Z,2460.00
2022-08-04T11:22:11.043Z,2340.00
2022-08-04T11:23:11.058Z,1104.00
2022-08-04T11:24:11.051Z,1056.00
2022-08-04T11:25:11.060Z,1316.00
2022-08-04T11:26:11.059Z,3116.00
2022-08-04T11:27:11.028Z,3524.00
2022-08-04T11:28:11.035Z,1948.00
2022-08-04T11:29:11.025Z,1504.00
2022-08-04T11:30:13.305Z,2344.00
2022-08-04T11:31:11.021Z,5956.00
2022-08-04T11:32:11.026Z,4840.00
2022-08-04T11:33:11.073Z,3232.00
2022-08-04T11:34:11.018Z,7696.00
2022-08-04T11:35:11.020Z,4376.00
2022-08-04T11:36:11.014Z,3272.00
2022-08-04T11:37:14.141Z,6600.00
2022-08-04T11:38:11.009Z,6248.00
2022-08-04T11:39:11.076Z,7184.00
2022-08-04T11:40:11.099Z,14400.00
2022-08-04T11:41:11.042Z,13784.00
2022-08-04T11:42:11.010Z,14144.00
2022-08-04T11:43:11.001Z,15296.00
2022-08-04T11:44:12.713Z,9900.00
2022-08-04T11:45:11.019Z,6352.00
2022-08-04T11:46:11.008Z,11320.00
2022-08-04T11:47:11.000Z,10752.00
2022-08-04T11:48:10.992Z,17760.00
2022-08-04T11:49:10.989Z,49632.00
2022-08-04T11:50:11.006Z,66112.00
2022-08-04T11:51:10.998Z,73696.00
2022-08-04T11:52:10.987Z,73600.00
2022-08-04T11:53:10.993Z,11236.00
2022-08-04T11:54:10.983Z,11528.00
2022-08-04T11:55:11.031Z,61984.00
2022-08-04T11:56:11.487Z,20704.00
2022-08-04T11:57:10.984Z,2412.00
2022-08-04T11:58:10.986Z,2384.00
2022-08-04T11:59:10.984Z,1848.00
2022-08-04T12:00:11.237Z,1604.00
2022-08-04T12:01:11.011Z,1024.00
2022-08-04T12:02:11.061Z,1020.00
2022-08-04T12:03:10.991Z,4612.00
2022-08-04T12:04:11.023Z,1732.00
2022-08-04T12:05:32.386Z,1872.00
2022-08-04T12:06:11.037Z,2232.00
2022-08-04T12:07:35.396Z,8272.00
2022-08-04T12:08:11.015Z,9924.00
2022-08-04T12:09:10.991Z,3916.00
2022-08-04T12:10:10.987Z,1868.00
2022-08-04T12:11:11.019Z,5440.00
2022-08-04T12:12:10.989Z,1360.00
2022-08-04T12:13:10.989Z,1636.00
2022-08-04T12:14:10.985Z,1832.00
2022-08-04T12:15:10.984Z,2024.00
2022-08-04T12:16:11.032Z,1748.00
2022-08-04T12:17:11.009Z,1716.00
2022-08-04T12:18:10.982Z,1688.00
2022-08-04T12:19:10.983Z,1520.00
2022-08-04T12:20:35.697Z,1436.00
2022-08-04T12:21:10.978Z,1424.00
2022-08-04T12:22:11.041Z,1292.00
2022-08-04T12:23:10.980Z,1212.00
2022-08-04T12:24:10.973Z,1352.00
2022-08-04T12:25:10.994Z,1372.00
2022-08-04T12:26:10.970Z,1492.00
2022-08-04T12:27:10.973Z,1564.00
2022-08-04T12:28:10.996Z,2140.00
2022-08-04T12:29:11.643Z,1384.00
2022-08-04T12:31:00.157Z,1456.00
2022-08-04T12:31:11.820Z,2028.00
2022-08-04T12:32:10.962Z,1220.00
2022-08-04T12:33:10.983Z,2204.00
2022-08-04T12:34:11.011Z,1588.00
2022-08-04T12:35:10.969Z,1576.00